createdAt,value
2018-03-02T00:02:20.282Z,-2.20
2018-03-02T00:04:47.695Z,-2.14
2018-03-02T00:07:15.110Z,-2.18
2018-03-02T00:09:42.525Z,-2.11
2018-03-02T00:12:09.941Z,-2.17
2018-03-02T00:14:37.395Z,-2.23
2018-03-02T00:17:04.819Z,-2.22
2018-03-02T00:19:32.257Z,-2.23
2018-03-02T00:21:59.678Z,-2.24
2018-03-02T00:24:27.102Z,-2.18
2018-03-02T00:26:54.523Z,-2.19
2018-03-02T00:29:21.962Z,-2.37
2018-03-02T00:31:49.468Z,-2.29
2018-03-02T00:34:16.886Z,-2.26
2018-03-02T00:36:44.320Z,-2.21
2018-03-02T00:39:11.752Z,-2.30
2018-03-02T00:41:39.168Z,-2.23
2018-03-02T00:44:06.577Z,-2.27
2018-03-02T00:46:34.010Z,-2.21
2018-03-02T00:49:01.430Z,-2.23
2018-03-02T00:51:28.906Z,-2.23
2018-03-02T00:53:56.358Z,-2.27
2018-03-02T00:56:23.774Z,-2.32
2018-03-02T00:58:51.206Z,-2.29
2018-03-02T01:01:18.656Z,-2.35
2018-03-02T01:03:46.091Z,-2.33
2018-03-02T01:06:13.536Z,-2.27
2018-03-02T01:08:40.973Z,-2.27
2018-03-02T01:11:08.418Z,-2.23
2018-03-02T01:13:35.837Z,-2.28
2018-03-02T01:16:03.258Z,-2.27
2018-03-02T01:18:30.700Z,-2.37
2018-03-02T01:20:58.134Z,-2.23
2018-03-02T01:23:25.588Z,-2.36
2018-03-02T01:25:53.038Z,-2.28
2018-03-02T01:28:20.453Z,-2.24
2018-03-02T01:30:47.883Z,-2.28
2018-03-02T01:33:15.328Z,-2.33
2018-03-02T01:35:42.761Z,-2.29
2018-03-02T01:38:10.214Z,-2.29
2018-03-02T01:40:37.618Z,-2.38
2018-03-02T01:43:05.046Z,-2.34
2018-03-02T01:45:32.472Z,-2.31
2018-03-02T01:47:59.908Z,-2.31
2018-03-02T01:50:27.334Z,-2.29
2018-03-02T01:52:54.773Z,-2.25
2018-03-02T01:55:22.230Z,-2.26
2018-03-02T01:57:49.917Z,-2.22
2018-03-02T02:00:18.259Z,-2.12
2018-03-02T02:02:45.685Z,-2.07
2018-03-02T02:05:13.138Z,-2.14
2018-03-02T02:07:40.568Z,-2.03
2018-03-02T02:10:07.986Z,-1.96
2018-03-02T02:12:35.425Z,-1.99
2018-03-02T02:15:02.862Z,-2.09
2018-03-02T02:17:30.290Z,-2.12
2018-03-02T02:19:57.715Z,-2.09
2018-03-02T02:22:25.145Z,-2.15
2018-03-02T02:24:52.553Z,-2.05
2018-03-02T02:27:19.978Z,-1.99
2018-03-02T02:29:47.925Z,-2.01
2018-03-02T02:32:15.350Z,-2.06
2018-03-02T02:34:42.811Z,-2.04
2018-03-02T02:37:10.225Z,-2.15
2018-03-02T02:39:37.649Z,-2.26
2018-03-02T02:42:05.066Z,-2.20
2018-03-02T02:44:32.478Z,-2.17
2018-03-02T02:46:59.895Z,-2.09
2018-03-02T02:49:27.314Z,-2.11
2018-03-02T02:51:54.738Z,-2.21
2018-03-02T02:54:22.154Z,-2.19
2018-03-02T02:56:49.571Z,-2.13
2018-03-02T02:59:16.991Z,-2.13
2018-03-02T03:01:44.417Z,-2.22
2018-03-02T03:04:11.841Z,-2.33
2018-03-02T03:06:39.258Z,-2.44
2018-03-02T03:09:06.678Z,-2.36
2018-03-02T03:11:34.094Z,-2.24
2018-03-02T03:14:01.519Z,-2.16
2018-03-02T03:16:28.945Z,-2.22
2018-03-02T03:18:56.358Z,-2.22
2018-03-02T03:21:23.778Z,-2.25
2018-03-02T03:23:51.202Z,-2.25
2018-03-02T03:26:18.614Z,-2.24
2018-03-02T03:28:46.044Z,-2.26
2018-03-02T03:31:13.458Z,-2.16
2018-03-02T03:33:40.885Z,-2.11
2018-03-02T03:36:08.310Z,-2.16
2018-03-02T03:38:35.732Z,-2.30
2018-03-02T03:41:03.181Z,-2.40
2018-03-02T03:43:30.593Z,-2.39
2018-03-02T03:45:58.014Z,-2.49
2018-03-02T03:48:25.434Z,-2.32
2018-03-02T03:50:52.853Z,-2.25
2018-03-02T03:53:20.275Z,-2.35
2018-03-02T03:55:47.694Z,-2.35
2018-03-02T03:58:15.109Z,-2.24
2018-03-02T04:00:42.525Z,-2.24
2018-03-02T04:03:09.941Z,-2.23
2018-03-02T04:05:37.362Z,-2.26
2018-03-02T04:08:04.777Z,-2.32
2018-03-02T04:10:32.181Z,-2.36
2018-03-02T04:12:59.604Z,-2.32
2018-03-02T04:15:27.013Z,-2.32
2018-03-02T04:17:54.429Z,-2.25
2018-03-02T04:20:21.847Z,-2.41
2018-03-02T04:22:49.268Z,-2.51
2018-03-02T04:25:16.682Z,-2.44
2018-03-02T04:27:44.106Z,-2.37
2018-03-02T04:30:11.514Z,-2.42
2018-03-02T04:32:38.923Z,-2.51
2018-03-02T04:35:06.349Z,-2.54
2018-03-02T04:37:33.761Z,-2.46
2018-03-02T04:40:01.177Z,-2.55
2018-03-02T04:42:28.593Z,-2.49
2018-03-02T04:44:56.005Z,-2.37
2018-03-02T04:47:23.426Z,-2.34
2018-03-02T04:49:50.858Z,-2.43
2018-03-02T04:52:18.275Z,-2.45
2018-03-02T04:54:45.685Z,-2.44
2018-03-02T04:57:13.111Z,-2.64
2018-03-02T04:59:40.526Z,-2.61
2018-03-02T05:02:07.953Z,-2.62
2018-03-02T05:04:35.375Z,-2.63
2018-03-02T05:07:02.794Z,-2.57
2018-03-02T05:09:30.224Z,-2.70
2018-03-02T05:11:57.646Z,-2.78
2018-03-02T05:14:25.062Z,-2.86
2018-03-02T05:16:52.473Z,-2.84
2018-03-02T05:19:19.926Z,-2.91
2018-03-02T05:21:47.338Z,-2.85
2018-03-02T05:24:14.758Z,-2.88
2018-03-02T05:26:42.170Z,-2.78
2018-03-02T05:29:09.585Z,-2.84
2018-03-02T05:31:37.002Z,-2.86
2018-03-02T05:34:04.434Z,-2.85
2018-03-02T05:36:31.850Z,-2.96
2018-03-02T05:38:59.284Z,-2.90
2018-03-02T05:41:26.714Z,-3.00
2018-03-02T05:43:54.121Z,-2.93
2018-03-02T05:46:21.537Z,-2.92
2018-03-02T05:48:48.950Z,-3.11
2018-03-02T05:51:16.381Z,-2.98
2018-03-02T05:53:43.801Z,-3.00
2018-03-02T05:56:11.233Z,-2.95
2018-03-02T05:58:38.658Z,-2.88
2018-03-02T06:01:06.073Z,-2.82
2018-03-02T06:03:33.498Z,-2.81
2018-03-02T06:06:00.918Z,-2.78
2018-03-02T06:08:28.329Z,-2.73
2018-03-02T06:10:55.761Z,-2.72
2018-03-02T06:13:23.204Z,-2.72
2018-03-02T06:15:50.639Z,-2.65
2018-03-02T06:18:18.070Z,-2.62
2018-03-02T06:20:45.496Z,-2.57
2018-03-02T06:23:12.910Z,-2.49
2018-03-02T06:25:40.330Z,-2.48
2018-03-02T06:28:07.743Z,-2.34
2018-03-02T06:30:35.167Z,-2.28
2018-03-02T06:33:02.583Z,-2.20
2018-03-02T06:35:30.016Z,-2.25
2018-03-02T06:37:57.437Z,-2.27
2018-03-02T06:40:24.862Z,-2.34
2018-03-02T06:42:52.307Z,-2.37
2018-03-02T06:45:19.731Z,-2.32
2018-03-02T06:47:47.180Z,-2.29
2018-03-02T06:50:14.596Z,-2.22
2018-03-02T06:52:42.046Z,-2.13
2018-03-02T06:55:12.736Z,-2.13
2018-03-02T06:57:40.174Z,-2.06
2018-03-02T07:00:07.594Z,-2.04
2018-03-02T07:02:35.033Z,-2.01
2018-03-02T07:05:02.562Z,-2.05
2018-03-02T07:07:29.999Z,-1.97
2018-03-02T07:09:57.427Z,-2.08
2018-03-02T07:12:39.364Z,-1.98
2018-03-02T07:15:06.789Z,-2.00
2018-03-02T07:17:34.211Z,-2.18
2018-03-02T07:20:01.624Z,-2.10
2018-03-02T07:22:29.062Z,-1.98
2018-03-02T07:24:56.492Z,-1.78
2018-03-02T07:27:24.015Z,-1.73
2018-03-02T07:29:52.529Z,-1.88
2018-03-02T07:32:20.147Z,-1.79
2018-03-02T07:34:48.687Z,-1.67
2018-03-02T07:37:16.214Z,-1.76
2018-03-02T07:39:43.655Z,-1.64
2018-03-02T07:42:11.083Z,-1.66
2018-03-02T07:44:42.378Z,-1.74
2018-03-02T07:47:09.795Z,-1.61
2018-03-02T07:49:37.222Z,-1.78
2018-03-02T07:52:10.281Z,-1.72
2018-03-02T07:54:37.695Z,-1.63
2018-03-02T07:57:05.141Z,-1.52
2018-03-02T07:59:32.966Z,-1.44
2018-03-02T08:02:00.374Z,-1.20
2018-03-02T08:04:27.841Z,-1.00
2018-03-02T08:43:55.434Z,-0.16
2018-03-02T08:46:22.850Z,-0.02
2018-03-02T08:48:50.270Z,0.08
2018-03-02T08:51:17.705Z,-0.12
2018-03-02T08:53:45.128Z,-0.05
2018-03-02T08:56:12.537Z,0.16
2018-03-02T08:58:39.950Z,0.11
2018-03-02T09:01:07.362Z,-0.02
2018-03-02T09:03:34.781Z,0.08
2018-03-02T09:06:02.193Z,0.10
2018-03-02T09:08:29.617Z,0.14
2018-03-02T09:10:57.030Z,0.13
2018-03-02T09:13:24.438Z,0.09
2018-03-02T09:15:51.858Z,0.03
2018-03-02T09:18:19.307Z,0.24
2018-03-02T09:20:50.506Z,0.45
2018-03-02T09:23:17.945Z,0.61
2018-03-02T09:25:45.397Z,0.71
2018-03-02T09:28:12.861Z,0.88
2018-03-02T09:30:40.271Z,0.84
2018-03-02T09:33:07.792Z,0.69
2018-03-02T09:35:35.834Z,0.61
2018-03-02T09:38:03.238Z,0.69
2018-03-02T09:40:33.883Z,0.64
2018-03-02T09:43:01.294Z,0.82
2018-03-02T09:45:29.413Z,0.91
2018-03-02T09:47:56.834Z,1.07
2018-03-02T09:50:25.161Z,0.97
2018-03-02T09:52:52.566Z,1.11
2018-03-02T09:55:19.978Z,1.06
2018-03-02T09:57:47.387Z,1.09
2018-03-02T10:00:14.789Z,1.27
2018-03-02T10:02:42.204Z,1.44
2018-03-02T10:05:09.616Z,1.31
2018-03-02T10:07:37.052Z,1.26
2018-03-02T10:10:04.453Z,1.26
2018-03-02T10:12:31.866Z,1.31
2018-03-02T10:14:59.297Z,1.39
2018-03-02T10:17:26.713Z,1.41
2018-03-02T10:19:54.130Z,1.32
2018-03-02T10:22:21.554Z,1.40
2018-03-02T10:24:48.980Z,1.45
2018-03-02T10:27:16.399Z,1.55
2018-03-02T10:29:44.408Z,1.51
2018-03-02T10:32:11.857Z,1.63
2018-03-02T10:34:39.273Z,1.77
2018-03-02T10:37:06.690Z,2.02
2018-03-02T10:39:34.160Z,2.15
2018-03-02T10:42:03.766Z,2.11
2018-03-02T10:44:31.193Z,2.16
2018-03-02T10:46:58.608Z,2.34
2018-03-02T10:49:26.033Z,2.44
2018-03-02T10:51:53.453Z,2.57
2018-03-02T10:54:20.877Z,2.65
2018-03-02T10:56:48.996Z,2.76
2018-03-02T10:59:16.437Z,2.91
2018-03-02T11:01:49.497Z,2.75
2018-03-02T11:04:17.821Z,2.69
2018-03-02T11:06:45.226Z,2.76
2018-03-02T11:09:12.641Z,2.82
2018-03-02T11:11:40.054Z,2.63
2018-03-02T11:14:07.466Z,2.85
2018-03-02T11:16:34.882Z,3.05
2018-03-02T11:19:02.309Z,3.12
2018-03-02T11:21:29.811Z,3.11
2018-03-02T11:23:57.230Z,3.04
2018-03-02T11:26:24.641Z,3.04
2018-03-02T11:28:52.061Z,3.07
2018-03-02T11:31:19.481Z,3.20
2018-03-02T11:33:46.937Z,3.20
2018-03-02T11:36:14.345Z,3.32
2018-03-02T11:38:41.786Z,3.10
2018-03-02T11:41:09.273Z,3.20
2018-03-02T11:43:36.710Z,3.37
2018-03-02T11:46:04.165Z,3.23
2018-03-02T11:48:31.581Z,3.20
2018-03-02T11:50:59.018Z,3.29
2018-03-02T11:53:26.433Z,3.39
2018-03-02T11:55:53.857Z,3.48
2018-03-02T11:58:21.325Z,3.40
2018-03-02T12:00:48.734Z,3.59
2018-03-02T12:03:16.158Z,3.60
2018-03-02T12:05:43.574Z,3.64
2018-03-02T12:08:11.006Z,3.81
2018-03-02T12:10:38.451Z,3.82
2018-03-02T12:13:05.881Z,3.93
2018-03-02T12:15:33.297Z,3.95
2018-03-02T12:18:00.718Z,3.94
2018-03-02T12:20:28.130Z,4.08
2018-03-02T12:22:55.549Z,4.03
2018-03-02T12:25:22.983Z,3.69
2018-03-02T12:27:50.411Z,3.85
2018-03-02T12:30:17.822Z,4.02
2018-03-02T12:32:45.238Z,4.12
2018-03-02T12:35:12.685Z,4.18
2018-03-02T12:37:40.101Z,4.19
2018-03-02T12:40:07.518Z,4.17
2018-03-02T12:42:34.943Z,4.20
2018-03-02T12:45:02.363Z,4.02
2018-03-02T12:47:29.789Z,3.96
2018-03-02T12:49:57.210Z,4.03
2018-03-02T12:52:24.637Z,4.06
2018-03-02T12:54:52.441Z,4.03
2018-03-02T12:57:19.854Z,3.98
2018-03-02T12:59:47.390Z,4.13
2018-03-02T13:02:14.806Z,4.12
2018-03-02T13:04:42.225Z,3.87
2018-03-02T13:07:09.701Z,3.77
2018-03-02T13:09:37.127Z,3.81
2018-03-02T13:12:04.549Z,3.74
2018-03-02T13:14:32.817Z,3.81
2018-03-02T13:17:00.298Z,3.90
2018-03-02T13:19:27.763Z,3.79
2018-03-02T13:21:55.190Z,3.78
2018-03-02T13:24:22.609Z,3.70
2018-03-02T13:27:01.598Z,3.60
2018-03-02T13:29:29.033Z,3.65
2018-03-02T13:31:56.478Z,3.77
2018-03-02T13:34:35.617Z,3.89
2018-03-02T13:37:03.049Z,3.68
2018-03-02T13:42:36.422Z,3.92
2018-03-02T13:45:03.841Z,3.85
2018-03-02T13:50:46.922Z,4.02
2018-03-02T13:53:14.353Z,3.74
2018-03-02T13:55:41.756Z,3.93
2018-03-02T13:58:09.187Z,4.10
2018-03-02T14:00:36.605Z,3.92
2018-03-02T14:06:02.738Z,4.09
2018-03-02T14:08:30.152Z,4.30
2018-03-02T14:10:57.585Z,4.33
2018-03-02T14:13:24.993Z,4.25
2018-03-02T14:15:52.431Z,4.21
2018-03-02T14:18:19.894Z,4.27
2018-03-02T14:20:47.368Z,4.44
2018-03-02T14:23:14.781Z,4.29
2018-03-02T14:25:42.193Z,4.19
2018-03-02T14:28:09.619Z,4.15
2018-03-02T14:30:39.081Z,4.20
2018-03-02T14:33:06.519Z,4.27
2018-03-02T14:35:33.938Z,4.27
2018-03-02T14:38:01.357Z,4.14
2018-03-02T14:40:28.851Z,4.06
2018-03-02T14:42:56.270Z,3.90
2018-03-02T14:45:23.685Z,3.95
2018-03-02T14:47:51.123Z,4.11
2018-03-02T14:50:18.545Z,4.30
2018-03-02T14:52:48.053Z,4.28
2018-03-02T14:55:15.473Z,4.15
2018-03-02T14:57:42.894Z,3.98
2018-03-02T15:00:10.301Z,3.99
2018-03-02T15:02:37.726Z,4.05
2018-03-02T15:05:05.142Z,3.90
2018-03-02T15:07:33.162Z,3.66
2018-03-02T15:10:00.520Z,3.59
2018-03-02T15:12:27.993Z,3.51
2018-03-02T15:14:55.366Z,3.70
2018-03-02T15:17:22.946Z,3.60
2018-03-02T15:19:51.317Z,3.55
2018-03-02T15:22:18.733Z,3.45
2018-03-02T15:24:46.171Z,3.45
2018-03-02T15:27:13.602Z,3.47
2018-03-02T15:29:41.014Z,3.56
2018-03-02T15:32:08.438Z,3.54
2018-03-02T15:34:35.849Z,3.60
2018-03-02T15:37:03.299Z,3.58
2018-03-02T15:39:30.713Z,3.56
2018-03-02T15:41:59.797Z,3.60
2018-03-02T15:44:27.223Z,3.61
2018-03-02T15:46:54.631Z,3.59
2018-03-02T15:49:22.047Z,3.54
2018-03-02T15:51:49.470Z,3.52
2018-03-02T15:54:16.898Z,3.44
2018-03-02T15:56:44.316Z,3.43
2018-03-02T15:59:11.732Z,3.44
2018-03-02T16:01:39.153Z,3.41
2018-03-02T16:04:06.582Z,3.52
2018-03-02T16:06:34.071Z,3.47
2018-03-02T16:09:01.493Z,3.48
2018-03-02T16:11:28.913Z,3.39
2018-03-02T16:13:57.138Z,3.47
2018-03-02T16:16:24.551Z,3.55
2018-03-02T16:18:51.983Z,3.45
2018-03-02T16:21:19.406Z,3.48
2018-03-02T16:23:46.829Z,3.29
2018-03-02T16:26:14.247Z,3.30
2018-03-02T16:28:41.706Z,3.29
2018-03-02T16:31:09.114Z,3.26
2018-03-02T16:33:37.530Z,3.27
2018-03-02T16:36:04.953Z,3.24
2018-03-02T16:38:32.379Z,3.25
2018-03-02T16:40:59.798Z,3.28
2018-03-02T16:43:27.241Z,3.18
2018-03-02T16:45:55.369Z,3.19
2018-03-02T16:48:46.526Z,3.27
2018-03-02T16:51:13.957Z,3.21
2018-03-02T16:53:41.457Z,3.17
2018-03-02T16:56:08.896Z,3.12
2018-03-02T16:58:36.306Z,3.04
2018-03-02T17:01:03.727Z,2.94
2018-03-02T17:03:39.183Z,2.87
2018-03-02T17:06:06.614Z,2.87
2018-03-02T17:08:34.045Z,2.85
2018-03-02T17:11:01.461Z,2.90
2018-03-02T17:13:28.877Z,2.77
2018-03-02T17:15:56.306Z,2.73
2018-03-02T17:18:23.714Z,2.73
2018-03-02T17:20:51.181Z,2.64
2018-03-02T17:23:18.699Z,2.50
2018-03-02T17:25:46.125Z,2.53
2018-03-02T17:28:13.550Z,2.50
2018-03-02T17:30:40.986Z,2.48
2018-03-02T17:33:08.415Z,2.43
2018-03-02T17:35:35.825Z,2.31
2018-03-02T17:38:03.253Z,2.32
2018-03-02T17:40:30.673Z,2.16
2018-03-02T17:42:58.082Z,2.15
2018-03-02T17:45:25.518Z,2.05
2018-03-02T17:47:52.934Z,2.07
2018-03-02T17:50:20.341Z,2.05
2018-03-02T17:52:47.762Z,2.05
2018-03-02T17:55:15.175Z,1.91
2018-03-02T17:57:42.602Z,1.96
2018-03-02T18:00:10.018Z,1.96
2018-03-02T18:02:37.450Z,1.97
2018-03-02T18:05:04.874Z,1.88
2018-03-02T18:07:32.302Z,1.98
2018-03-02T18:10:00.604Z,1.90
2018-03-02T18:12:28.014Z,1.87
2018-03-02T18:14:55.426Z,1.86
2018-03-02T18:17:22.842Z,1.72
2018-03-02T18:19:50.252Z,1.74
2018-03-02T18:22:17.680Z,1.73
2018-03-02T18:24:45.086Z,1.79
2018-03-02T18:27:12.497Z,1.77
2018-03-02T18:29:39.913Z,1.85
2018-03-02T18:32:07.322Z,1.86
2018-03-02T18:34:36.698Z,1.99
2018-03-02T18:37:04.114Z,2.00
2018-03-02T18:39:31.631Z,2.00
2018-03-02T18:41:59.037Z,1.93
2018-03-02T18:44:26.454Z,1.85
2018-03-02T18:46:53.900Z,1.90
2018-03-02T18:49:21.309Z,1.95
2018-03-02T18:51:48.726Z,1.81
2018-03-02T18:54:16.150Z,1.81
2018-03-02T18:56:43.565Z,1.76
2018-03-02T18:59:10.998Z,1.74
2018-03-02T19:01:38.414Z,1.78
2018-03-02T19:04:05.831Z,1.71
2018-03-02T19:06:33.238Z,1.75
2018-03-02T19:09:00.642Z,1.70
2018-03-02T19:11:28.058Z,1.75
2018-03-02T19:13:55.462Z,1.77
2018-03-02T19:16:23.155Z,1.73
2018-03-02T19:18:50.570Z,1.63
2018-03-02T19:21:17.981Z,1.48
2018-03-02T19:23:45.430Z,1.33
2018-03-02T19:26:12.894Z,1.36
2018-03-02T19:28:40.330Z,1.34
2018-03-02T19:31:07.744Z,1.32
2018-03-02T19:33:35.155Z,1.15
2018-03-02T19:36:02.959Z,1.07
2018-03-02T19:38:30.372Z,0.99
2018-03-02T19:40:57.805Z,0.96
2018-03-02T19:43:25.199Z,0.84
2018-03-02T19:45:52.639Z,0.93
2018-03-02T19:48:20.106Z,0.91
2018-03-02T19:50:47.514Z,0.84
2018-03-02T19:53:14.930Z,0.76
2018-03-02T19:55:42.337Z,0.71
2018-03-02T19:58:09.769Z,0.59
2018-03-02T20:00:37.199Z,0.59
2018-03-02T20:03:04.607Z,0.68
2018-03-02T20:05:32.027Z,0.46
2018-03-02T20:07:59.430Z,0.35
2018-03-02T20:10:26.865Z,0.37
2018-03-02T20:12:54.269Z,0.41
2018-03-02T20:15:21.697Z,0.22
2018-03-02T20:17:49.111Z,0.29
2018-03-02T20:20:16.543Z,0.38
2018-03-02T20:22:43.965Z,0.45
2018-03-02T20:25:11.403Z,0.40
2018-03-02T20:27:38.806Z,0.42
2018-03-02T20:30:06.238Z,0.53
2018-03-02T20:32:33.639Z,0.41
2018-03-02T20:35:01.074Z,0.43
2018-03-02T20:37:28.490Z,0.32
2018-03-02T20:39:55.897Z,0.34
2018-03-02T20:44:50.018Z,0.32
2018-03-02T20:47:17.485Z,0.32
2018-03-02T20:49:44.850Z,0.23
2018-03-02T20:52:12.262Z,0.15
2018-03-02T20:54:39.677Z,0.10
2018-03-02T20:57:07.091Z,0.11
2018-03-02T20:59:34.518Z,-0.03
2018-03-02T21:02:01.929Z,-0.02
2018-03-02T21:04:29.334Z,0.01
2018-03-02T21:06:56.762Z,0.03
2018-03-02T21:09:24.175Z,-0.02
2018-03-02T21:11:51.614Z,-0.17
2018-03-02T21:14:19.032Z,-0.15
2018-03-02T21:16:46.446Z,-0.18
2018-03-02T21:19:13.874Z,-0.14
2018-03-02T21:21:41.285Z,-0.14
2018-03-02T21:24:08.714Z,-0.17
2018-03-02T21:26:36.132Z,-0.21
2018-03-02T21:29:03.550Z,-0.18
2018-03-02T21:31:36.724Z,-0.41
2018-03-02T21:34:04.138Z,-0.35
2018-03-02T21:36:31.566Z,-0.34
2018-03-02T21:38:58.974Z,-0.33
2018-03-02T21:41:26.390Z,-0.31
2018-03-02T21:43:53.809Z,-0.47
2018-03-02T21:46:21.226Z,-0.35
2018-03-02T21:48:48.670Z,-0.35
2018-03-02T21:51:16.091Z,-0.41
2018-03-02T21:53:43.498Z,-0.38
2018-03-02T21:56:10.940Z,-0.35
2018-03-02T21:58:38.367Z,-0.44
2018-03-02T22:01:05.794Z,-0.46
2018-03-02T22:03:33.210Z,-0.52
2018-03-02T22:06:00.634Z,-0.50
2018-03-02T22:08:28.061Z,-0.46
2018-03-02T22:10:55.486Z,-0.49
2018-03-02T22:13:22.933Z,-0.41
2018-03-02T22:15:50.351Z,-0.48
2018-03-02T22:18:17.773Z,-0.43
2018-03-02T22:20:45.202Z,-0.49
2018-03-02T22:23:12.625Z,-0.38
2018-03-02T22:25:40.115Z,-0.46
2018-03-02T22:28:07.544Z,-0.45
2018-03-02T22:30:34.958Z,-0.45
2018-03-02T22:33:02.383Z,-0.44
2018-03-02T22:35:29.804Z,-0.43
2018-03-02T22:37:57.241Z,-0.46
2018-03-02T22:40:24.659Z,-0.45
2018-03-02T22:42:52.095Z,-0.47
2018-03-02T22:45:19.527Z,-0.49
2018-03-02T22:47:46.946Z,-0.51
2018-03-02T22:50:14.375Z,-0.50
2018-03-02T22:52:41.788Z,-0.54
2018-03-02T22:55:09.210Z,-0.46
2018-03-02T22:57:36.639Z,-0.40
2018-03-02T23:00:04.058Z,-0.42
2018-03-02T23:02:31.502Z,-0.49
2018-03-02T23:04:58.910Z,-0.40
2018-03-02T23:07:26.326Z,-0.54
2018-03-02T23:09:53.748Z,-0.48
2018-03-02T23:12:21.163Z,-0.46
2018-03-02T23:14:48.597Z,-0.50
2018-03-02T23:17:16.013Z,-0.65
2018-03-02T23:19:43.424Z,-0.55
2018-03-02T23:22:10.854Z,-0.61
2018-03-02T23:24:38.271Z,-0.57
2018-03-02T23:27:05.702Z,-0.60
2018-03-02T23:29:33.123Z,-0.59
2018-03-02T23:32:00.542Z,-0.59
2018-03-02T23:34:27.962Z,-0.54
2018-03-02T23:36:55.382Z,-0.66
2018-03-02T23:39:22.822Z,-0.63
2018-03-02T23:41:50.237Z,-0.62
2018-03-02T23:44:17.658Z,-0.55
2018-03-02T23:46:45.083Z,-0.64
2018-03-02T23:49:12.506Z,-0.56
2018-03-02T23:51:39.942Z,-0.58
2018-03-02T23:54:07.389Z,-0.58
2018-03-02T23:56:34.810Z,-0.62
2018-03-02T23:59:02.232Z,-0.57
